Home   Weather   USA   Valdosta   Past weeks
Flag for USA

Past Weather in Valdosta, Georgia, USA — February 2020

Currently: 68 °F. Sunny. (Weather station: Valdosta Regional, USA). See more current weather

February 2020 Weather in Valdosta — Graph

°F

High & Low Weather Summary for February 2020

 TemperatureHumidityPressure
High82 °F (Feb 13, 1:53 pm)97% (Feb 4, 4:13 am)30.50 "Hg (Feb 4, 4:13 am)
Low31 °F (Feb 28, 5:53 am)24% (Feb 22, 4:53 pm)29.46 "Hg (Feb 6, 6:32 pm)
Average58 °F76%30.13 "Hg
* Reported Feb 1 12:53 am — Feb 29 11:53 pm, Valdosta. Weather by CustomWeather, © 2021

Note: Actual official high and low records may vary slightly from our data, if they occured in-between our weather recording intervals... More about our weather records

Valdosta Weather History for February 1, 2020

Scroll right to see more
 ConditionsComfort  
Time TempWeatherWind HumidityBarometerVisibility
12:53 am
Sat, Feb 1
46 °FFog.8 mph93%30.06 "Hg6 mi
1:27 am46 °FFog.8 mph93%30.03 "Hg2 mi
1:53 am46 °FFog.7 mph93%30.06 "Hg3 mi
2:53 am46 °FFog.9 mph93%30.04 "Hg5 mi
3:53 am45 °FFog.6 mph93%30.05 "Hg6 mi
4:53 am45 °FFog.8 mph93%30.02 "Hg6 mi
5:37 am46 °FLow clouds.12 mph89%30.01 "Hg10 mi
5:53 am46 °FLow clouds.7 mph89%30.03 "Hg10 mi
6:14 am45 °FLow clouds.6 mph93%30.02 "Hg9 mi
6:35 am46 °FLow clouds.6 mph89%30.03 "Hg10 mi
6:53 am46 °FLow clouds.No wind89%30.06 "Hg10 mi
7:53 am46 °FLow clouds.No wind89%30.08 "Hg7 mi
8:53 am46 °FLow clouds.No wind89%30.07 "Hg10 mi
9:53 am47 °FLow clouds.No wind86%30.06 "Hg10 mi
10:53 am48 °FLow clouds.3 mph86%30.09 "Hg10 mi
11:53 am50 °FLow clouds.3 mph83%30.06 "Hg10 mi
12:53 pm50 °FLow clouds.5 mph83%30.05 "Hg10 mi
1:53 pm49 °FLow clouds.No wind86%30.02 "Hg10 mi
2:53 pm49 °FLow clouds.5 mph84%30.02 "Hg10 mi
3:53 pm49 °FLow clouds.6 mph86%30.01 "Hg10 mi
4:53 pm49 °FLow clouds.3 mph84%30.03 "Hg10 mi
5:53 pm49 °FLow clouds.3 mph84%30.04 "Hg10 mi
6:53 pm49 °FLow clouds.3 mph84%30.06 "Hg10 mi
7:53 pm49 °FOvercast.No wind86%30.09 "Hg10 mi
9:53 pm43 °FClear.No wind89%30.11 "Hg9 mi
10:53 pm41 °FFog.No wind93%30.12 "Hg5 mi
11:53 pm44 °FClear.3 mph93%30.12 "Hg7 mi
Weather by CustomWeather, © 2021

See weather overview